createdAt,value
2019-06-07T00:01:55.145Z,51.20
2019-06-07T00:04:26.351Z,48.78
2019-06-07T00:06:56.440Z,45.28
2019-06-07T00:09:26.600Z,44.10
2019-06-07T00:11:56.747Z,46.73
2019-06-07T00:14:28.045Z,46.05
2019-06-07T00:16:58.213Z,47.53
2019-06-07T00:19:29.410Z,51.73
2019-06-07T00:22:25.354Z,49.93
2019-06-07T00:24:31.379Z,49.42
2019-06-07T00:27:01.450Z,41.63
2019-06-07T00:29:31.575Z,47.75
2019-06-07T00:32:01.707Z,47.27
2019-06-07T00:34:31.893Z,52.20
2019-06-07T00:37:01.822Z,53.25
2019-06-07T00:39:31.717Z,51.45
2019-06-07T00:42:01.903Z,64.95
2019-06-07T00:44:32.073Z,59.13
2019-06-07T00:47:02.139Z,61.30
2019-06-07T00:49:40.489Z,63.60
2019-06-07T00:52:03.887Z,66.17
2019-06-07T00:54:33.847Z,52.95
2019-06-07T00:57:03.952Z,61.23
2019-06-07T00:59:34.039Z,55.28
2019-06-07T01:02:05.542Z,57.75
2019-06-07T01:04:35.729Z,55.03
2019-06-07T01:07:05.893Z,53.92
2019-06-07T01:09:35.896Z,50.78
2019-06-07T01:12:05.927Z,44.58
2019-06-07T01:14:36.043Z,45.92
2019-06-07T01:17:27.615Z,46.33
2019-06-07T01:19:48.219Z,44.38
2019-06-07T01:22:20.015Z,42.43
2019-06-07T01:24:49.877Z,38.95
2019-06-07T01:27:22.551Z,34.75
2019-06-07T01:29:51.786Z,44.60
2019-06-07T01:32:26.541Z,29.20
2019-06-07T01:34:53.330Z,33.18
2019-06-07T01:37:26.529Z,34.20
2019-06-07T01:39:55.071Z,30.60
2019-06-07T01:42:28.893Z,25.88
2019-06-07T01:44:56.719Z,27.85
2019-06-07T01:47:31.137Z,28.70
2019-06-07T01:49:58.665Z,27.67
2019-06-07T01:52:29.747Z,22.42
2019-06-07T01:55:00.138Z,24.85
2019-06-07T01:57:45.030Z,26.77
2019-06-07T02:00:02.132Z,29.60
2019-06-07T02:02:33.712Z,20.48
2019-06-07T02:05:05.553Z,20.12
2019-06-07T02:07:36.207Z,26.33
2019-06-07T02:10:07.184Z,24.07
2019-06-07T02:12:43.251Z,19.82
2019-06-07T02:15:10.543Z,17.52
2019-06-07T02:17:40.608Z,22.17
2019-06-07T02:20:11.122Z,22.93
2019-06-07T02:22:41.166Z,19.55
2019-06-07T02:27:43.311Z,19.60
2019-06-07T02:32:45.487Z,23.87
2019-06-07T02:35:15.817Z,24.30
2019-06-07T02:37:45.924Z,22.42
2019-06-07T02:40:16.692Z,19.90
2019-06-07T02:42:46.687Z,19.40
2019-06-07T02:45:16.869Z,17.55
2019-06-07T02:47:48.169Z,19.95
2019-06-07T02:50:18.521Z,18.42
2019-06-07T02:52:49.052Z,18.52
2019-06-07T02:55:20.364Z,15.58
2019-06-07T02:57:50.366Z,16.73
2019-06-07T03:01:06.569Z,17.73
2019-06-07T03:03:19.386Z,15.70
2019-06-07T03:05:50.038Z,15.60
2019-06-07T03:08:20.049Z,20.62
2019-06-07T03:10:51.018Z,19.98
2019-06-07T03:13:22.171Z,15.13
2019-06-07T03:15:54.361Z,20.90
2019-06-07T03:18:43.558Z,21.80
2019-06-07T03:21:16.333Z,18.87
2019-06-07T03:23:47.255Z,21.25
2019-06-07T03:26:18.403Z,18.35
2019-06-07T03:28:48.535Z,20.00
2019-06-07T03:31:18.726Z,22.93
2019-06-07T03:33:48.889Z,21.02
2019-06-07T03:36:25.588Z,18.02
2019-06-07T03:38:51.781Z,20.43
2019-06-07T03:41:21.713Z,20.92
2019-06-07T03:43:51.662Z,22.48
2019-06-07T03:46:21.603Z,20.90
2019-06-07T03:48:52.880Z,18.32
2019-06-07T03:51:25.317Z,23.62
2019-06-07T03:53:54.650Z,17.80
2019-06-07T03:56:24.598Z,24.75
2019-06-07T03:58:54.546Z,17.07
2019-06-07T04:01:24.480Z,21.20
2019-06-07T04:03:54.473Z,20.85
2019-06-07T04:06:24.504Z,20.27
2019-06-07T04:08:54.571Z,24.10
2019-06-07T04:11:24.669Z,17.95
2019-06-07T04:13:54.652Z,24.00
2019-06-07T04:16:24.666Z,20.27
2019-06-07T04:18:54.649Z,18.55
2019-06-07T04:21:24.721Z,14.80
2019-06-07T04:23:54.781Z,17.70
2019-06-07T04:26:24.838Z,15.72
2019-06-07T04:29:31.668Z,17.50
2019-06-07T04:31:26.535Z,23.80
2019-06-07T04:33:56.733Z,17.20
2019-06-07T04:36:41.823Z,21.60
2019-06-07T04:39:01.070Z,16.27
2019-06-07T04:41:36.800Z,19.00
2019-06-07T04:44:06.331Z,24.67
2019-06-07T04:46:42.606Z,20.08
2019-06-07T04:49:14.219Z,16.80
2019-06-07T04:51:45.510Z,20.43
2019-06-07T04:54:15.391Z,21.95
2019-06-07T04:56:45.417Z,26.07
2019-06-07T05:00:00.159Z,24.43
2019-06-07T05:01:48.146Z,24.80
2019-06-07T05:04:18.047Z,23.65
2019-06-07T05:06:48.029Z,23.40
2019-06-07T05:09:18.009Z,18.67
2019-06-07T05:11:48.009Z,23.15
2019-06-07T05:14:17.930Z,21.52
2019-06-07T05:16:48.002Z,24.27
2019-06-07T05:19:18.017Z,22.00
2019-06-07T05:22:02.419Z,23.12
2019-06-07T05:24:19.815Z,25.12
2019-06-07T05:26:50.013Z,24.82
2019-06-07T05:29:21.137Z,21.35
2019-06-07T05:31:51.207Z,23.95
2019-06-07T05:34:21.388Z,23.25
2019-06-07T05:37:10.557Z,21.52
2019-06-07T05:39:23.085Z,18.90
2019-06-07T05:41:53.013Z,25.57
2019-06-07T05:44:23.191Z,20.92
2019-06-07T05:46:53.157Z,23.00
2019-06-07T05:49:23.268Z,22.15
2019-06-07T05:51:53.201Z,21.05
2019-06-07T05:54:23.110Z,18.82
2019-06-07T05:56:53.185Z,16.67
2019-06-07T05:59:23.222Z,23.60
2019-06-07T06:02:02.821Z,19.55
2019-06-07T06:04:25.067Z,18.77
2019-06-07T06:06:54.937Z,19.87
2019-06-07T06:09:24.984Z,19.98
2019-06-07T06:12:02.099Z,20.65
2019-06-07T06:14:27.608Z,21.33
2019-06-07T06:16:57.631Z,21.73
2019-06-07T06:19:27.755Z,25.57
2019-06-07T06:21:58.006Z,19.80
2019-06-07T06:24:28.102Z,20.25
2019-06-07T06:27:15.271Z,19.75
2019-06-07T06:29:29.787Z,17.87
2019-06-07T06:32:40.703Z,19.20
2019-06-07T06:34:31.617Z,20.85
2019-06-07T06:37:01.618Z,22.77
2019-06-07T06:39:31.681Z,23.77
2019-06-07T06:42:03.838Z,23.52
2019-06-07T06:44:33.467Z,21.40
2019-06-07T06:47:03.491Z,19.50
2019-06-07T06:49:33.571Z,25.23
2019-06-07T06:52:03.619Z,21.25
2019-06-07T06:54:41.025Z,23.73
2019-06-07T06:57:18.997Z,26.50
2019-06-07T06:59:40.012Z,21.80
2019-06-07T07:02:08.874Z,23.27
2019-06-07T07:04:41.822Z,20.12
2019-06-07T07:07:11.366Z,22.82
2019-06-07T07:09:43.734Z,22.00
2019-06-07T07:12:14.983Z,23.83
2019-06-07T07:14:47.330Z,19.82
2019-06-07T07:17:16.446Z,20.65
2019-06-07T07:19:48.443Z,20.70
2019-06-07T07:22:18.287Z,25.97
2019-06-07T07:24:51.816Z,22.00
2019-06-07T07:27:20.416Z,25.70
2019-06-07T07:30:10.155Z,23.27
2019-06-07T07:32:22.110Z,33.10
2019-06-07T07:34:59.649Z,26.07
2019-06-07T07:37:23.628Z,27.77
2019-06-07T07:40:01.091Z,32.15
2019-06-07T07:42:25.347Z,26.23
2019-06-07T07:44:56.814Z,28.98
2019-06-07T07:47:27.147Z,32.73
2019-06-07T07:49:59.171Z,30.68
2019-06-07T07:52:28.971Z,30.92
2019-06-07T07:54:59.357Z,34.80
2019-06-07T07:57:29.520Z,32.45
2019-06-07T08:00:25.588Z,32.28
2019-06-07T08:02:31.303Z,29.67
2019-06-07T08:05:25.653Z,28.10
2019-06-07T08:07:33.513Z,32.42
2019-06-07T08:10:05.393Z,36.33
2019-06-07T08:12:55.884Z,32.60
2019-06-07T08:15:07.938Z,27.73
2019-06-07T08:17:37.972Z,28.15
2019-06-07T08:20:10.619Z,29.60
2019-06-07T08:22:40.670Z,22.87
2019-06-07T08:25:12.278Z,24.80
2019-06-07T08:27:42.457Z,26.57
2019-06-07T08:30:47.213Z,32.35
2019-06-07T08:32:46.073Z,24.57
2019-06-07T08:36:01.001Z,30.97
2019-06-07T08:38:22.823Z,27.45
2019-06-07T08:40:21.820Z,28.83
2019-06-07T08:43:10.787Z,23.83
2019-06-07T08:47:57.998Z,25.92
2019-06-07T08:50:26.738Z,19.67
2019-06-07T08:53:03.616Z,23.67
2019-06-07T08:55:28.608Z,23.73
2019-06-07T08:58:04.216Z,24.10
2019-06-07T09:00:45.366Z,25.20
2019-06-07T09:03:06.450Z,26.07
2019-06-07T09:05:33.802Z,24.15
2019-06-07T09:08:23.867Z,20.20
2019-06-07T09:10:35.596Z,32.38
2019-06-07T09:13:11.192Z,20.45
2019-06-07T09:15:37.810Z,23.77
2019-06-07T09:20:47.961Z,16.75
2019-06-07T09:23:18.486Z,17.90
2019-06-07T09:25:57.383Z,18.48
2019-06-07T09:28:21.393Z,21.10
2019-06-07T09:30:51.639Z,17.23
2019-06-07T09:33:21.757Z,21.02
2019-06-07T09:35:52.375Z,28.80
2019-06-07T09:38:26.232Z,16.95
2019-06-07T09:40:54.133Z,16.25
2019-06-07T09:44:00.928Z,17.87
2019-06-07T09:45:57.989Z,21.48
2019-06-07T09:49:10.107Z,16.15
2019-06-07T09:53:30.270Z,18.23
2019-06-07T09:56:05.719Z,21.27
2019-06-07T09:58:51.184Z,20.05
2019-06-07T10:01:09.939Z,18.52
2019-06-07T10:03:36.161Z,23.05
2019-06-07T10:06:12.309Z,21.93
2019-06-07T10:11:09.634Z,14.80
2019-06-07T10:13:39.651Z,16.35
2019-06-07T10:16:09.939Z,17.77
2019-06-07T10:18:39.922Z,14.98
2019-06-07T10:21:14.802Z,13.08
2019-06-07T10:23:41.803Z,14.63
2019-06-07T10:26:11.859Z,14.65
2019-06-07T10:28:41.906Z,13.48
2019-06-07T10:31:12.833Z,12.67
2019-06-07T10:33:42.982Z,10.98
2019-06-07T10:36:13.124Z,11.78
2019-06-07T10:38:43.220Z,11.78
2019-06-07T10:41:13.291Z,10.48
2019-06-07T10:43:43.242Z,15.15
2019-06-07T10:46:13.179Z,12.85
2019-06-07T10:48:43.208Z,11.50
2019-06-07T10:51:14.767Z,13.48
2019-06-07T10:53:45.278Z,15.20
2019-06-07T10:56:15.459Z,13.93
2019-06-07T10:58:45.436Z,14.07
2019-06-07T11:01:15.574Z,14.50
2019-06-07T11:03:45.514Z,17.45
2019-06-07T11:06:15.722Z,19.10
2019-06-07T11:08:45.886Z,15.00
2019-06-07T11:11:15.961Z,16.57
2019-06-07T11:13:46.998Z,19.62
2019-06-07T11:16:17.015Z,13.32
2019-06-07T11:18:47.003Z,15.15
2019-06-07T11:21:18.549Z,12.03
2019-06-07T11:23:48.683Z,15.05
2019-06-07T11:26:18.775Z,12.93
2019-06-07T11:28:48.629Z,14.50
2019-06-07T11:31:18.965Z,11.15
2019-06-07T11:33:49.205Z,16.32
2019-06-07T11:36:19.213Z,13.18
2019-06-07T11:38:49.186Z,13.98
2019-06-07T11:41:19.106Z,13.32
2019-06-07T11:43:49.162Z,12.78
2019-06-07T11:46:19.170Z,11.15
2019-06-07T11:48:49.190Z,10.28
2019-06-07T11:51:19.350Z,13.03
2019-06-07T11:53:49.358Z,15.90
2019-06-07T11:56:19.441Z,13.05
2019-06-07T11:58:49.571Z,12.80
2019-06-07T12:01:19.749Z,11.15
2019-06-07T12:03:50.943Z,12.78
2019-06-07T12:06:20.902Z,14.63
2019-06-07T12:08:51.105Z,14.00
2019-06-07T12:11:21.211Z,15.32
2019-06-07T12:13:51.212Z,15.60
2019-06-07T12:16:21.209Z,12.60
2019-06-07T12:18:51.249Z,9.73
2019-06-07T12:21:22.516Z,12.70
2019-06-07T12:23:53.106Z,12.60
2019-06-07T12:26:23.142Z,12.23
2019-06-07T12:28:53.174Z,15.55
2019-06-07T12:31:23.227Z,11.63
2019-06-07T12:33:53.222Z,15.78
2019-06-07T12:36:23.283Z,17.95
2019-06-07T12:38:53.285Z,12.10
2019-06-07T12:41:25.106Z,13.85
2019-06-07T12:43:55.039Z,17.60
2019-06-07T12:46:28.462Z,13.03
2019-06-07T12:48:56.736Z,16.55
2019-06-07T12:51:26.826Z,11.30
2019-06-07T12:53:56.908Z,13.68
2019-06-07T12:56:27.031Z,12.80
2019-06-07T12:58:57.033Z,10.63
2019-06-07T13:01:27.045Z,11.40
2019-06-07T13:03:56.959Z,25.72
2019-06-07T13:06:27.977Z,8.40
2019-06-07T13:08:58.271Z,14.03
2019-06-07T13:11:31.625Z,12.70
2019-06-07T13:14:00.180Z,12.73
2019-06-07T13:16:30.202Z,10.98
2019-06-07T13:19:00.187Z,10.53
2019-06-07T13:21:30.337Z,10.68
2019-06-07T13:24:00.301Z,9.55
2019-06-07T13:26:30.388Z,10.82
2019-06-07T13:29:00.326Z,10.30
2019-06-07T13:31:30.394Z,12.63
2019-06-07T13:34:00.470Z,10.03
2019-06-07T13:36:30.469Z,7.87
2019-06-07T13:39:00.529Z,8.98
2019-06-07T13:41:41.856Z,10.23
2019-06-07T13:44:02.785Z,13.93
2019-06-07T13:46:32.745Z,16.48
2019-06-07T13:49:02.839Z,10.80
2019-06-07T13:51:33.435Z,13.38
2019-06-07T13:54:03.783Z,11.45
2019-06-07T13:56:33.771Z,12.18
2019-06-07T13:59:03.943Z,11.45
2019-06-07T14:01:35.509Z,12.55
2019-06-07T14:04:05.602Z,7.67
2019-06-07T14:06:35.495Z,9.43
2019-06-07T14:09:07.363Z,12.90
2019-06-07T14:11:49.834Z,7.65
2019-06-07T14:14:09.276Z,10.40
2019-06-07T14:16:39.330Z,12.10
2019-06-07T14:19:09.304Z,11.28
2019-06-07T14:21:40.834Z,11.15
2019-06-07T14:24:11.051Z,14.28
2019-06-07T14:26:42.655Z,9.90
2019-06-07T14:29:12.603Z,23.10
2019-06-07T14:31:42.602Z,14.87
2019-06-07T14:34:12.710Z,9.00
2019-06-07T14:36:42.814Z,9.50
2019-06-07T14:39:12.986Z,8.68
2019-06-07T14:41:43.063Z,13.93
2019-06-07T14:44:13.110Z,12.40
2019-06-07T14:46:43.149Z,10.90
2019-06-07T14:49:13.174Z,14.87
2019-06-07T14:51:43.229Z,12.58
2019-06-07T14:54:13.847Z,14.68
2019-06-07T14:56:43.917Z,11.63
2019-06-07T14:59:14.665Z,12.80
2019-06-07T15:01:44.724Z,8.63
2019-06-07T15:04:15.588Z,12.28
2019-06-07T15:06:45.754Z,9.45
2019-06-07T15:09:15.858Z,12.37
2019-06-07T15:11:45.819Z,15.65
2019-06-07T15:14:16.889Z,14.30
2019-06-07T15:16:47.045Z,16.52
2019-06-07T15:19:17.023Z,11.68
2019-06-07T15:21:47.035Z,11.12
2019-06-07T15:24:17.020Z,14.87
2019-06-07T15:26:47.054Z,11.50
2019-06-07T15:29:17.058Z,12.18
2019-06-07T15:31:47.051Z,9.68
2019-06-07T15:34:17.026Z,9.33
2019-06-07T15:36:47.027Z,8.53
2019-06-07T15:39:17.061Z,9.33
2019-06-07T15:41:47.052Z,11.55
2019-06-07T15:44:17.055Z,12.63
2019-06-07T15:46:47.086Z,11.12
2019-06-07T15:49:17.065Z,13.25
2019-06-07T15:51:47.095Z,16.77
2019-06-07T15:54:16.992Z,12.63
2019-06-07T15:56:47.029Z,15.78
2019-06-07T15:59:17.154Z,11.50
2019-06-07T16:01:47.265Z,18.90
2019-06-07T16:04:17.324Z,15.23
2019-06-07T16:06:47.474Z,14.53
2019-06-07T16:09:17.470Z,13.83
2019-06-07T16:11:47.415Z,14.55
2019-06-07T16:14:17.462Z,15.32
2019-06-07T16:16:47.536Z,17.05
2019-06-07T16:19:17.568Z,12.10
2019-06-07T16:21:47.569Z,15.53
2019-06-07T16:24:17.695Z,14.45
2019-06-07T16:26:47.801Z,12.70
2019-06-07T16:29:17.848Z,14.85
2019-06-07T16:31:47.907Z,14.45
2019-06-07T16:34:17.988Z,14.00
2019-06-07T16:36:48.849Z,9.13
2019-06-07T16:39:18.961Z,13.90
2019-06-07T16:41:49.537Z,12.82
2019-06-07T16:44:19.581Z,13.32
2019-06-07T16:46:49.511Z,12.10
2019-06-07T16:49:19.560Z,13.95
2019-06-07T16:51:49.565Z,14.45
2019-06-07T16:54:19.592Z,12.10
2019-06-07T16:56:51.320Z,11.10
2019-06-07T16:59:21.405Z,12.80
2019-06-07T17:01:51.445Z,11.22
2019-06-07T17:04:21.523Z,10.90
2019-06-07T17:06:51.558Z,14.40
2019-06-07T17:09:21.515Z,10.65
2019-06-07T17:11:51.613Z,8.43
2019-06-07T17:14:21.590Z,9.18
2019-06-07T17:16:51.609Z,14.03
2019-06-07T17:19:23.088Z,7.53
2019-06-07T17:21:53.085Z,10.23
2019-06-07T17:24:26.608Z,11.18
2019-06-07T17:26:54.915Z,14.38
2019-06-07T17:29:24.984Z,9.95
2019-06-07T17:31:55.112Z,10.93
2019-06-07T17:34:25.293Z,18.67
2019-06-07T17:36:55.522Z,12.50
2019-06-07T17:39:25.564Z,9.15
2019-06-07T17:42:02.106Z,14.75
2019-06-07T17:44:27.333Z,9.48
2019-06-07T17:46:57.361Z,8.68
2019-06-07T17:49:28.221Z,11.57
2019-06-07T17:51:58.099Z,10.70
2019-06-07T17:54:29.190Z,11.15
2019-06-07T17:56:59.258Z,9.33
2019-06-07T17:59:29.341Z,11.20
2019-06-07T18:02:14.366Z,13.58
2019-06-07T18:04:31.182Z,11.28
2019-06-07T18:07:01.809Z,13.03
2019-06-07T18:09:34.351Z,10.70
2019-06-07T18:12:04.829Z,9.85
2019-06-07T18:14:34.892Z,13.98
2019-06-07T18:17:04.966Z,10.88
2019-06-07T18:19:35.072Z,13.13
2019-06-07T18:22:05.072Z,10.23
2019-06-07T18:24:35.067Z,10.23
2019-06-07T18:27:07.063Z,12.18
2019-06-07T18:29:36.698Z,10.93
2019-06-07T18:32:06.834Z,13.75
2019-06-07T18:34:36.877Z,12.30
2019-06-07T18:37:07.080Z,15.15
2019-06-07T18:39:37.135Z,12.00
2019-06-07T18:42:07.073Z,9.13
2019-06-07T18:44:36.915Z,11.90
2019-06-07T18:47:06.858Z,11.55
2019-06-07T18:49:36.878Z,22.58
2019-06-07T18:52:14.457Z,19.65
2019-06-07T18:54:44.529Z,17.90
2019-06-07T18:57:14.539Z,10.32
2019-06-07T18:59:44.476Z,14.28
2019-06-07T19:02:14.589Z,11.08
2019-06-07T19:04:44.525Z,11.08
2019-06-07T19:07:14.540Z,11.97
2019-06-07T19:09:45.469Z,10.48
2019-06-07T19:12:15.680Z,11.60
2019-06-07T19:14:45.676Z,10.10
2019-06-07T19:17:15.797Z,14.73
2019-06-07T19:19:45.860Z,7.55
2019-06-07T19:22:16.252Z,9.60
2019-06-07T19:24:46.250Z,9.33
2019-06-07T19:27:16.419Z,15.55
2019-06-07T19:29:46.476Z,14.18
2019-06-07T19:32:16.415Z,13.38
2019-06-07T19:34:46.396Z,15.13
2019-06-07T19:37:16.460Z,13.60
2019-06-07T19:39:46.540Z,17.15
2019-06-07T19:42:16.519Z,10.10
2019-06-07T19:44:54.235Z,9.70
2019-06-07T19:47:18.189Z,8.98
2019-06-07T19:49:48.252Z,12.28
2019-06-07T19:52:18.340Z,11.78
2019-06-07T19:54:48.368Z,7.12
2019-06-07T19:57:18.298Z,9.98
2019-06-07T19:59:48.363Z,9.43
2019-06-07T20:02:18.340Z,8.50
2019-06-07T20:04:48.734Z,18.07
2019-06-07T20:07:18.856Z,11.12
2019-06-07T20:09:48.871Z,14.55
2019-06-07T20:12:18.831Z,11.75
2019-06-07T20:14:48.880Z,12.73
2019-06-07T20:17:19.028Z,13.22
2019-06-07T20:19:49.079Z,12.70
2019-06-07T20:22:20.228Z,12.25
2019-06-07T20:24:50.268Z,13.18
2019-06-07T20:27:20.194Z,17.32
2019-06-07T20:29:50.166Z,12.03
2019-06-07T20:32:20.146Z,12.68
2019-06-07T20:34:50.367Z,12.90
2019-06-07T20:37:20.357Z,12.53
2019-06-07T20:39:50.443Z,13.40
2019-06-07T20:42:20.499Z,9.90
2019-06-07T20:44:50.536Z,11.50
2019-06-07T20:47:20.589Z,12.85
2019-06-07T20:49:50.527Z,10.90
2019-06-07T20:52:20.509Z,10.00
2019-06-07T20:54:50.562Z,19.07
2019-06-07T20:57:20.678Z,13.70
2019-06-07T20:59:50.645Z,11.83
2019-06-07T21:02:20.505Z,14.93
2019-06-07T21:04:50.735Z,16.67
2019-06-07T21:07:20.941Z,12.23
2019-06-07T21:09:50.964Z,18.42
2019-06-07T21:12:21.079Z,13.60
2019-06-07T21:14:51.143Z,12.95
2019-06-07T21:17:21.072Z,12.37
2019-06-07T21:19:51.432Z,14.35
2019-06-07T21:22:21.924Z,15.00
2019-06-07T21:24:52.013Z,11.78
2019-06-07T21:27:22.080Z,14.47
2019-06-07T21:29:52.139Z,16.37
2019-06-07T21:32:21.983Z,15.80
2019-06-07T21:34:51.961Z,13.65
2019-06-07T21:37:21.959Z,15.80
2019-06-07T21:39:52.117Z,19.77
2019-06-07T21:42:22.205Z,15.55
2019-06-07T21:44:52.214Z,19.85
2019-06-07T21:47:22.307Z,17.90
2019-06-07T21:49:52.240Z,16.37
2019-06-07T21:52:22.222Z,19.20
2019-06-07T21:54:52.373Z,15.10
2019-06-07T21:57:22.379Z,16.40
2019-06-07T21:59:52.420Z,16.65
2019-06-07T22:02:22.565Z,24.15
2019-06-07T22:04:52.796Z,16.00
2019-06-07T22:07:22.799Z,22.77
2019-06-07T22:09:52.769Z,21.23
2019-06-07T22:12:22.766Z,15.78
2019-06-07T22:14:52.909Z,23.18
2019-06-07T22:17:22.906Z,17.65
2019-06-07T22:19:53.111Z,18.65
2019-06-07T22:22:23.247Z,17.37
2019-06-07T22:24:53.384Z,22.22
2019-06-07T22:27:23.364Z,19.98
2019-06-07T22:29:53.382Z,21.50
2019-06-07T22:32:23.412Z,30.10
2019-06-07T22:34:53.381Z,17.73
2019-06-07T22:37:23.714Z,20.50
2019-06-07T22:39:54.929Z,18.73
2019-06-07T22:42:24.956Z,22.60
2019-06-07T22:44:55.107Z,16.70
2019-06-07T22:47:25.125Z,16.77
2019-06-07T22:49:55.126Z,19.55
2019-06-07T22:52:25.236Z,14.70
2019-06-07T22:54:55.255Z,15.93
2019-06-07T22:57:28.006Z,22.37
2019-06-07T22:59:57.947Z,13.37
2019-06-07T23:02:28.005Z,11.28
2019-06-07T23:04:58.143Z,13.72
2019-06-07T23:07:28.168Z,19.30
2019-06-07T23:09:58.291Z,15.05
2019-06-07T23:12:28.243Z,13.68
2019-06-07T23:14:58.253Z,16.82
2019-06-07T23:17:28.292Z,13.48
2019-06-07T23:19:58.355Z,14.40
2019-06-07T23:22:28.475Z,19.25
2019-06-07T23:24:58.541Z,14.20
2019-06-07T23:27:28.574Z,15.72
2019-06-07T23:29:58.749Z,14.63
2019-06-07T23:32:28.721Z,20.35
2019-06-07T23:34:58.705Z,18.87
2019-06-07T23:37:28.696Z,14.85
2019-06-07T23:39:58.849Z,14.15
2019-06-07T23:42:29.030Z,17.95
2019-06-07T23:44:59.037Z,16.77
2019-06-07T23:47:29.001Z,17.65
2019-06-07T23:49:59.030Z,17.67
2019-06-07T23:52:29.024Z,17.73
2019-06-07T23:54:58.987Z,19.20
2019-06-07T23:57:29.046Z,24.35
2019-06-07T23:59:59.135Z,23.10
